Time;durP1;ratioP1;P1;durP2;ratioP2;P2;SDS_P1;SDS_P2;PMS_P1;PMS_P2;Temp;Humidity;BMP_temperature;BMP_pressure;BME280_temperature;BME280_humidity;BME280_pressure;Samples;Min_cycle;Max_cycle;Signal;HPM_P1;HPM_P2
2023/03/26 00:02:45;;;;;;;;;;;;;;;8.49;84.87;99848.34;5595503;31;34947;-66
2023/03/26 00:06:06;;;;;;;;;;;;;;;8.50;85.54;99857.94;5608586;31;33850;-65
2023/03/26 00:09:14;;;;;;;;;;;;;;;8.40;86.29;99846.72;5607614;31;33169;-65
2023/03/26 00:12:26;;;;;;;;;;;;;;;8.40;85.74;99833.50;5608397;31;34508;-65
2023/03/26 00:15:34;;;;;;;;;;;;;;;8.23;86.41;99840.56;5608406;31;34136;-65
2023/03/26 00:18:43;;;;;;;;;;;;;;;8.23;86.94;99840.56;5608255;31;34544;-66
2023/03/26 00:21:51;;;;;;;;;;;;;;;8.38;84.51;99840.75;5608251;31;34427;-66
2023/03/26 00:25:00;;;;;;;;;;;;;;;8.37;85.78;99849.69;5608367;31;34139;-66
2023/03/26 00:28:09;;;;;;;;;;;;;;;8.39;84.81;99844.22;5608294;31;34676;-65
2023/03/26 00:31:18;;;;;;;;;;;;;;;8.37;86.81;99843.59;5595249;31;34024;-65
2023/03/26 00:34:27;;;;;;;;;;;;;;;8.41;85.28;99840.44;5608189;31;34299;-65
2023/03/26 00:37:36;;;;;;;;;;;;;;;8.16;87.49;99844.03;5595574;31;33537;-65
2023/03/26 00:40:46;;;;;;;;;;;;;;;8.26;86.25;99842.91;5608848;31;33821;-66
2023/03/26 00:44:03;;;;;;;;;;;;;;;8.28;84.84;99842.69;5608069;31;34284;-65
2023/03/26 00:47:12;;;;;;;;;;;;;;;8.26;85.54;99844.72;5608580;31;34917;-65
2023/03/26 00:50:23;;;;;;;;;;;;;;;8.37;85.79;99838.28;5607236;31;33214;-64
2023/03/26 00:53:30;;;;;;;;;;;;;;;8.08;86.06;99829.03;5594645;31;33553;-64
2023/03/26 00:56:40;;;;;;;;;;;;;;;7.80;89.60;99833.78;5607861;31;34195;-65
2023/03/26 00:59:49;;;;;;;;;;;;;;;7.91;89.30;99832.63;5607613;31;34228;-64
2023/03/26 01:02:59;;;;;;;;;;;;;;;8.06;88.89;99822.25;5607555;31;34852;-64
2023/03/26 01:06:18;;;;;;;;;;;;;;;8.02;89.38;99826.22;5594867;31;32719;-64
2023/03/26 01:09:35;;;;;;;;;;;;;;;8.11;88.85;99826.06;5607351;31;34731;-64
2023/03/26 01:12:43;;;;;;;;;;;;;;;8.03;89.19;99819.94;5596786;31;34541;-65
2023/03/26 01:15:56;;;;;;;;;;;;;;;7.91;92.17;99815.97;5597498;31;35686;-65
2023/03/26 01:19:15;;;;;;;;;;;;;;;7.66;94.44;99820.38;5609492;31;32822;-64
2023/03/26 01:22:25;;;;;;;;;;;;;;;7.62;96.14;99821.72;5610131;31;34151;-64
2023/03/26 01:25:37;;;;;;;;;;;;;;;7.44;98.40;99824.47;5609893;31;33972;-64
2023/03/26 01:28:50;;;;;;;;;;;;;;;7.21;100.00;99821.59;5610622;31;34875;-65
2023/03/26 01:32:16;;;;;;;;;;;;;;;7.32;100.00;99823.94;5597000;31;32545;-64
2023/03/26 01:35:44;;;;;;;;;;;;;;;7.35;100.00;99830.72;5596834;31;34421;-64
2023/03/26 01:38:58;;;;;;;;;;;;;;;7.21;100.00;99832.13;5609413;31;32848;-64
2023/03/26 01:42:12;;;;;;;;;;;;;;;7.16;100.00;99831.81;5609907;31;34788;-64
2023/03/26 01:45:23;;;;;;;;;;;;;;;7.53;99.30;99827.97;5609591;31;34403;-65
2023/03/26 01:48:33;;;;;;;;;;;;;;;7.64;98.04;99833.78;5609783;31;35226;-65
2023/03/26 01:51:42;;;;;;;;;;;;;;;7.34;100.00;99843.09;5609676;31;34401;-64
2023/03/26 01:54:52;;;;;;;;;;;;;;;7.35;99.63;99834.19;5584810;31;34900;-65
2023/03/26 01:58:08;;;;;;;;;;;;;;;7.88;93.86;99825.06;5608946;31;33313;-65
2023/03/26 02:01:28;;;;;;;;;;;;;;;7.78;93.44;99833.13;5596775;31;34380;-65
2023/03/26 02:04:51;;;;;;;;;;;;;;;7.67;94.80;99836.06;5609542;31;34236;-65
2023/03/26 02:08:01;;;;;;;;;;;;;;;7.62;95.77;99845.47;5610119;31;34853;-65
2023/03/26 02:11:11;;;;;;;;;;;;;;;7.41;96.85;99846.72;5609358;31;33315;-66
2023/03/26 02:14:21;;;;;;;;;;;;;;;7.34;98.08;99851.00;5609457;31;34230;-65
2023/03/26 02:17:28;;;;;;;;;;;;;;;7.29;100.00;99855.94;5609503;31;34110;-67
2023/03/26 02:20:42;;;;;;;;;;;;;;;7.26;99.17;99858.06;5609497;31;34151;-65
2023/03/26 02:23:56;;;;;;;;;;;;;;;7.26;99.90;99861.50;5608308;31;34475;-65
2023/03/26 02:27:06;;;;;;;;;;;;;;;7.14;100.00;99856.69;5609309;31;33736;-65
2023/03/26 02:30:16;;;;;;;;;;;;;;;7.10;100.00;99863.28;5609440;31;34966;-65
2023/03/26 02:33:25;;;;;;;;;;;;;;;6.90;100.00;99858.22;5609971;31;34930;-64
2023/03/26 02:36:34;;;;;;;;;;;;;;;6.79;100.00;99855.84;5609292;31;34735;-65
2023/03/26 02:39:44;;;;;;;;;;;;;;;6.66;100.00;99846.72;5610001;31;33896;-65
2023/03/26 02:42:54;;;;;;;;;;;;;;;6.56;100.00;99844.19;5609156;31;34328;-65
2023/03/26 02:46:01;;;;;;;;;;;;;;;6.43;100.00;99836.72;5609206;31;34154;-65
2023/03/26 02:49:12;;;;;;;;;;;;;;;6.30;100.00;99838.91;5596759;31;33215;-65
2023/03/26 02:52:25;;;;;;;;;;;;;;;6.19;100.00;99835.69;5609935;31;34188;-65
2023/03/26 02:55:34;;;;;;;;;;;;;;;6.05;100.00;99831.81;5609129;31;34054;-65
2023/03/26 02:58:42;;;;;;;;;;;;;;;6.07;100.00;99830.66;5609055;31;33887;-65
2023/03/26 03:01:50;;;;;;;;;;;;;;;5.99;100.00;99822.72;5609734;31;35261;-65
2023/03/26 03:05:04;;;;;;;;;;;;;;;6.02;100.00;99822.41;5596243;31;32773;-65
2023/03/26 03:08:17;;;;;;;;;;;;;;;5.96;100.00;99835.34;5608912;31;34190;-65
2023/03/26 03:11:28;;;;;;;;;;;;;;;5.84;100.00;99837.34;5608527;31;34985;-65
2023/03/26 03:14:36;;;;;;;;;;;;;;;5.77;100.00;99827.56;5608924;31;34157;-65
2023/03/26 03:17:46;;;;;;;;;;;;;;;5.82;100.00;99823.50;5609054;31;34202;-65
2023/03/26 03:20:54;;;;;;;;;;;;;;;5.80;100.00;99827.28;5608526;31;34301;-64
2023/03/26 03:24:03;;;;;;;;;;;;;;;5.70;100.00;99832.63;5609693;31;34144;-64
2023/03/26 03:27:17;;;;;;;;;;;;;;;5.64;100.00;99835.84;5596671;31;34490;-64
2023/03/26 03:30:28;;;;;;;;;;;;;;;5.54;100.00;99835.91;5609039;31;34673;-65
2023/03/26 03:33:40;;;;;;;;;;;;;;;5.59;100.00;99843.34;5595377;31;33093;-65
2023/03/26 03:36:48;;;;;;;;;;;;;;;5.75;100.00;99837.44;5608917;31;35612;-65
2023/03/26 03:40:00;;;;;;;;;;;;;;;5.73;100.00;99828.84;5596179;31;33760;-64
2023/03/26 03:43:14;;;;;;;;;;;;;;;5.62;100.00;99825.44;5609515;31;34143;-64
2023/03/26 03:46:25;;;;;;;;;;;;;;;5.59;100.00;99825.75;5608892;31;34303;-64
2023/03/26 03:49:34;;;;;;;;;;;;;;;5.54;100.00;99838.53;5595593;31;33405;-64
2023/03/26 03:52:43;;;;;;;;;;;;;;;5.58;100.00;99847.78;5595724;31;34163;-65
2023/03/26 03:55:53;;;;;;;;;;;;;;;5.59;100.00;99851.25;5609143;31;34507;-64
2023/03/26 03:59:02;;;;;;;;;;;;;;;5.58;100.00;99839.06;5608527;31;34407;-64
2023/03/26 04:02:11;;;;;;;;;;;;;;;5.52;100.00;99843.09;5609239;31;34301;-65
2023/03/26 04:05:20;;;;;;;;;;;;;;;5.51;100.00;99843.28;5595897;31;33053;-65
2023/03/26 04:08:32;;;;;;;;;;;;;;;5.48;100.00;99852.28;5543113;31;2067942;-65
2023/03/26 04:11:42;;;;;;;;;;;;;;;5.43;100.00;99851.06;5595864;31;34156;-65
2023/03/26 04:14:55;;;;;;;;;;;;;;;5.37;100.00;99849.03;5607292;31;33297;-65
2023/03/26 04:18:09;;;;;;;;;;;;;;;5.34;100.00;99862.47;5595755;31;33898;-65
2023/03/26 04:21:18;;;;;;;;;;;;;;;5.31;100.00;99853.09;5608438;31;34810;-65
2023/03/26 04:24:28;;;;;;;;;;;;;;;5.32;100.00;99865.25;5608198;31;34189;-66
2023/03/26 04:27:42;;;;;;;;;;;;;;;5.65;100.00;99856.75;5609061;31;34183;-65
2023/03/26 04:30:56;;;;;;;;;;;;;;;5.61;100.00;99850.13;5607704;31;33168;-66
2023/03/26 04:34:13;;;;;;;;;;;;;;;5.58;100.00;99854.84;5608813;31;33415;-65
2023/03/26 04:37:38;;;;;;;;;;;;;;;5.51;100.00;99846.72;5608045;31;34563;-65
2023/03/26 04:40:47;;;;;;;;;;;;;;;5.46;100.00;99848.16;5608099;31;33804;-65
2023/03/26 04:44:03;;;;;;;;;;;;;;;5.61;100.00;99844.88;5608182;31;33901;-65
2023/03/26 04:47:12;;;;;;;;;;;;;;;5.56;100.00;99851.56;5606220;31;33998;-65
2023/03/26 04:50:21;;;;;;;;;;;;;;;5.56;100.00;99865.53;5608613;31;34779;-65
2023/03/26 04:53:31;;;;;;;;;;;;;;;5.80;100.00;99864.97;5607834;31;34330;-65
2023/03/26 04:56:51;;;;;;;;;;;;;;;6.05;100.00;99866.03;5607586;31;34223;-65
2023/03/26 05:00:02;;;;;;;;;;;;;;;5.97;100.00;99866.78;5595355;31;34202;-66
2023/03/26 05:03:12;;;;;;;;;;;;;;;6.02;100.00;99864.53;5608568;31;34173;-65
2023/03/26 05:06:23;;;;;;;;;;;;;;;6.25;100.00;99856.97;5607760;31;33891;-65
2023/03/26 05:09:33;;;;;;;;;;;;;;;6.51;100.00;99857.84;5594662;31;33910;-65
2023/03/26 05:12:45;;;;;;;;;;;;;;;6.74;100.00;99854.66;5608255;31;34365;-65
2023/03/26 05:15:54;;;;;;;;;;;;;;;6.99;100.00;99845.91;5607385;31;33794;-66
2023/03/26 05:19:04;;;;;;;;;;;;;;;7.26;100.00;99858.88;5608154;31;34862;-65
2023/03/26 05:22:13;;;;;;;;;;;;;;;7.59;100.00;99851.09;5594705;31;32557;-66
2023/03/26 05:25:30;;;;;;;;;;;;;;;7.96;100.00;99856.75;5608096;31;34821;-66
2023/03/26 05:28:43;;;;;;;;;;;;;;;8.05;100.00;99853.12;5591682;31;33892;-66
2023/03/26 05:31:57;;;;;;;;;;;;;;;8.13;100.00;99849.66;5590857;31;34167;-66
2023/03/26 05:35:09;;;;;;;;;;;;;;;8.26;100.00;99853.47;5594738;31;34454;-66
2023/03/26 05:38:17;;;;;;;;;;;;;;;8.35;100.00;99837.62;5607683;31;34748;-65
2023/03/26 05:41:27;;;;;;;;;;;;;;;8.34;100.00;99838.59;5606716;31;33370;-66
2023/03/26 05:44:35;;;;;;;;;;;;;;;8.31;100.00;99850.34;5607599;31;34442;-66
2023/03/26 05:47:48;;;;;;;;;;;;;;;8.19;100.00;99844.53;5607727;31;33846;-66
2023/03/26 05:51:00;;;;;;;;;;;;;;;8.22;100.00;99848.69;5606805;31;34195;-66
2023/03/26 05:54:08;;;;;;;;;;;;;;;8.49;100.00;99847.53;5593612;31;37256;-66
2023/03/26 05:57:17;;;;;;;;;;;;;;;8.65;100.00;99858.09;5607743;31;34913;-66
2023/03/26 06:00:29;;;;;;;;;;;;;;;9.01;91.69;99855.81;5596999;31;34850;-66
2023/03/26 06:03:37;;;;;;;;;;;;;;;9.39;87.15;99854.22;5609616;31;34977;-66
2023/03/26 06:06:45;;;;;;;;;;;;;;;9.78;84.24;99843.56;5610382;31;33941;-65
2023/03/26 06:09:55;;;;;;;;;;;;;;;9.80;81.20;99846.84;5584053;31;35008;-66
2023/03/26 06:13:04;;;;;;;;;;;;;;;9.77;80.17;99845.38;5609615;31;34026;-64
2023/03/26 06:16:16;;;;;;;;;;;;;;;9.96;77.20;99842.25;5610271;31;34901;-66
2023/03/26 06:19:33;;;;;;;;;;;;;;;10.07;78.72;99845.50;5608995;31;32967;-66
2023/03/26 06:22:42;;;;;;;;;;;;;;;10.26;77.76;99842.41;5609643;31;33300;-66
2023/03/26 06:25:51;;;;;;;;;;;;;;;10.39;75.63;99834.66;5610195;31;34738;-66
2023/03/26 06:29:04;;;;;;;;;;;;;;;10.60;74.43;99839.28;5609300;31;34824;-65
2023/03/26 06:32:14;;;;;;;;;;;;;;;11.18;69.92;99836.59;5609387;31;34200;-66
2023/03/26 06:35:28;;;;;;;;;;;;;;;11.61;67.08;99842.03;5609284;31;34837;-66
2023/03/26 06:38:35;;;;;;;;;;;;;;;11.83;65.19;99840.25;5609246;31;33750;-66
2023/03/26 06:41:45;;;;;;;;;;;;;;;11.50;66.33;99843.34;5596308;31;32785;-65
2023/03/26 06:44:55;;;;;;;;;;;;;;;11.48;65.38;99852.50;5609814;31;34528;-65
2023/03/26 06:48:08;;;;;;;;;;;;;;;11.57;65.72;99849.53;5609138;31;33964;-66
2023/03/26 06:51:18;;;;;;;;;;;;;;;12.11;63.94;99846.44;5609830;31;34493;-66
2023/03/26 06:54:29;;;;;;;;;;;;;;;12.58;61.47;99848.50;5608937;31;35068;-65
2023/03/26 06:57:38;;;;;;;;;;;;;;;12.14;61.99;99849.56;5596189;31;33491;-65
2023/03/26 07:00:46;;;;;;;;;;;;;;;12.56;60.49;99856.66;5608972;31;33087;-66
2023/03/26 07:03:57;;;;;;;;;;;;;;;12.15;62.67;99851.19;5609862;31;34241;-66
2023/03/26 07:07:22;;;;;;;;;;;;;;;12.55;61.63;99851.53;5609061;31;35010;-66
2023/03/26 07:10:33;;;;;;;;;;;;;;;13.55;57.92;99841.28;5608795;31;34384;-66
2023/03/26 07:13:46;;;;;;;;;;;;;;;14.55;54.22;99838.56;5609623;31;34865;-66
2023/03/26 07:16:56;;;;;;;;;;;;;;;15.11;52.38;99833.50;5608850;31;33563;-66
2023/03/26 07:20:08;;;;;;;;;;;;;;;14.93;52.71;99830.69;5608952;31;34346;-66
2023/03/26 07:23:19;;;;;;;;;;;;;;;14.95;50.93;99834.00;5609825;31;34355;-66
2023/03/26 07:26:45;;;;;;;;;;;;;;;15.58;49.49;99832.34;5609682;31;34438;-65
2023/03/26 07:30:05;;;;;;;;;;;;;;;15.92;48.41;99838.34;5595930;31;34408;-66
2023/03/26 07:33:30;;;;;;;;;;;;;;;15.97;47.82;99833.16;5609647;31;33703;-66
2023/03/26 07:36:57;;;;;;;;;;;;;;;17.07;45.30;99834.28;5608810;31;34354;-66
2023/03/26 07:40:19;;;;;;;;;;;;;;;15.89;46.64;99844.91;5602610;31;34922;-67
2023/03/26 07:43:25;;;;;;;;;;;;;;;16.03;46.20;99843.78;5608763;31;34312;-65
2023/03/26 07:46:35;;;;;;;;;;;;;;;16.01;45.09;99837.84;5608891;31;33177;-67
2023/03/26 07:49:43;;;;;;;;;;;;;;;16.74;42.83;99837.28;5608478;31;34399;-68
2023/03/26 07:52:49;;;;;;;;;;;;;;;16.21;43.40;99845.75;5609329;31;34774;-67
2023/03/26 07:56:09;;;;;;;;;;;;;;;15.87;44.09;99832.81;5609031;31;34146;-67
2023/03/26 07:59:33;;;;;;;;;;;;;;;16.14;44.35;99839.59;5609215;31;34180;-66
2023/03/26 08:02:45;;;;;;;;;;;;;;;15.92;44.42;99832.97;5607942;31;34540;-67
2023/03/26 08:06:03;;;;;;;;;;;;;;;15.41;44.76;99843.69;5609136;31;34903;-67
2023/03/26 08:09:32;;;;;;;;;;;;;;;14.12;47.84;99839.97;5608178;31;34279;-67
2023/03/26 08:12:54;;;;;;;;;;;;;;;14.00;48.79;99836.22;5609120;31;34587;-68
2023/03/26 08:16:06;;;;;;;;;;;;;;;13.71;49.36;99853.41;5607927;31;33901;-66
2023/03/26 08:19:26;;;;;;;;;;;;;;;13.86;49.19;99838.88;5608408;31;35608;-67
2023/03/26 08:22:37;;;;;;;;;;;;;;;14.33;48.24;99839.75;5608874;31;33985;-66
2023/03/26 08:25:50;;;;;;;;;;;;;;;13.74;49.24;99845.03;5595087;31;34677;-67
2023/03/26 08:29:10;;;;;;;;;;;;;;;13.33;50.33;99842.41;5608039;31;33052;-66
2023/03/26 08:32:18;;;;;;;;;;;;;;;13.14;51.30;99848.47;5608301;31;34263;-66
2023/03/26 08:35:25;;;;;;;;;;;;;;;13.18;51.03;99841.72;5608544;31;34310;-66
2023/03/26 08:38:36;;;;;;;;;;;;;;;13.10;51.69;99845.34;5608762;31;34950;-66
2023/03/26 08:42:01;;;;;;;;;;;;;;;13.21;52.39;99834.16;5608757;31;34795;-66
2023/03/26 08:45:30;;;;;;;;;;;;;;;13.72;50.25;99834.53;5608511;31;34619;-67
2023/03/26 08:49:01;;;;;;;;;;;;;;;14.12;49.96;99840.78;5607640;31;33246;-66
2023/03/26 08:52:10;;;;;;;;;;;;;;;13.79;50.65;99837.25;5601729;31;34356;-66
2023/03/26 08:55:37;;;;;;;;;;;;;;;13.71;49.78;99837.41;5594931;31;32743;-66
2023/03/26 08:58:47;;;;;;;;;;;;;;;14.03;50.68;99828.69;5607630;31;33061;-66
2023/03/26 09:01:55;;;;;;;;;;;;;;;14.11;51.27;99825.81;5607572;31;34840;-66
2023/03/26 09:05:23;;;;;;;;;;;;;;;14.17;52.89;99821.50;5606995;31;34477;-66
2023/03/26 09:08:38;;;;;;;;;;;;;;;14.16;49.64;99819.84;5594301;31;34542;-65
2023/03/26 09:12:17;;;;;;;;;;;;;;;14.55;49.41;99825.22;5607032;31;32889;-66
2023/03/26 09:15:34;;;;;;;;;;;;;;;14.86;47.98;99810.37;5607876;31;34868;-66
2023/03/26 09:18:53;;;;;;;;;;;;;;;14.90;46.57;99811.59;5606823;31;34187;-66
2023/03/26 09:22:00;;;;;;;;;;;;;;;15.48;45.75;99813.25;5606541;31;34214;-66
2023/03/26 09:25:25;;;;;;;;;;;;;;;16.07;45.54;99818.25;5606651;31;32865;-67
2023/03/26 09:28:49;;;;;;;;;;;;;;;15.94;44.49;99804.13;5606702;31;34668;-66
2023/03/26 09:32:13;;;;;;;;;;;;;;;15.59;44.26;99817.09;5607362;31;34232;-66
2023/03/26 09:35:42;;;;;;;;;;;;;;;15.30;45.27;99802.41;5609867;31;32907;-66
2023/03/26 09:38:59;;;;;;;;;;;;;;;15.78;44.87;99802.78;5609913;31;34385;-66
2023/03/26 09:42:26;;;;;;;;;;;;;;;15.58;44.80;99792.25;5596238;31;34372;-66
2023/03/26 09:45:41;;;;;;;;;;;;;;;15.64;44.11;99790.53;5609160;31;33348;-66
2023/03/26 09:48:52;;;;;;;;;;;;;;;15.43;44.62;99789.00;5609964;31;34295;-66
2023/03/26 09:52:19;;;;;;;;;;;;;;;15.26;46.43;99782.47;5608909;31;33671;-65
2023/03/26 09:55:39;;;;;;;;;;;;;;;14.69;45.99;99785.97;5609061;31;35002;-65
2023/03/26 09:58:48;;;;;;;;;;;;;;;14.83;46.13;99770.72;5595835;31;34239;-65
2023/03/26 10:02:03;;;;;;;;;;;;;;;14.92;45.79;99766.78;5610364;31;34932;-66
2023/03/26 10:05:31;;;;;;;;;;;;;;;14.77;45.84;99754.50;5609481;31;34060;-66
2023/03/26 10:08:44;;;;;;;;;;;;;;;14.87;46.19;99756.75;5609342;31;32983;-66
2023/03/26 10:12:08;;;;;;;;;;;;;;;14.83;44.71;99752.84;5609113;31;34760;-67
2023/03/26 10:15:35;;;;;;;;;;;;;;;14.72;44.61;99743.63;5596180;31;33434;-66
2023/03/26 10:19:08;;;;;;;;;;;;;;;15.04;44.22;99733.87;5609182;31;34437;-66
2023/03/26 10:22:23;;;;;;;;;;;;;;;15.08;43.60;99729.75;5596650;31;34942;-65
2023/03/26 10:25:41;;;;;;;;;;;;;;;14.96;44.14;99738.66;5610208;31;34254;-65
2023/03/26 10:28:51;;;;;;;;;;;;;;;15.18;46.10;99734.63;5609968;31;33876;-66
2023/03/26 10:32:17;;;;;;;;;;;;;;;15.21;47.00;99734.19;5609305;31;34555;-66
2023/03/26 10:35:52;;;;;;;;;;;;;;;15.10;47.65;99733.03;5595751;31;34456;-67
2023/03/26 10:39:09;;;;;;;;;;;;;;;14.98;46.61;99725.91;5595557;31;32345;-67
2023/03/26 10:42:58;;;;;;;;;;;;;;;14.79;45.55;99724.94;5608606;31;33021;-66
2023/03/26 10:46:24;;;;;;;;;;;;;;;14.09;51.35;99728.31;5609581;31;33800;-66
2023/03/26 10:49:38;;;;;;;;;;;;;;;14.22;54.15;99715.81;5608925;31;33693;-67
2023/03/26 10:52:54;;;;;;;;;;;;;;;14.30;53.95;99712.91;5609791;31;34362;-66
2023/03/26 10:56:22;;;;;;;;;;;;;;;14.71;52.81;99714.50;5608934;31;34254;-66
2023/03/26 10:59:29;;;;;;;;;;;;;;;15.23;51.67;99710.78;5608957;31;32759;-67
2023/03/26 11:02:43;;;;;;;;;;;;;;;15.17;50.42;99714.28;5608902;31;34293;-66
2023/03/26 11:06:08;;;;;;;;;;;;;;;15.51;49.41;99697.06;5608936;31;34224;-66
2023/03/26 11:09:28;;;;;;;;;;;;;;;16.91;46.55;99689.13;5608352;31;34961;-67
2023/03/26 11:12:46;;;;;;;;;;;;;;;20.16;38.77;99689.75;5608748;31;34852;-65
2023/03/26 11:16:04;;;;;;;;;;;;;;;20.16;39.69;99675.47;5596254;31;33882;-65
2023/03/26 11:19:15;;;;;;;;;;;;;;;19.03;39.94;99676.47;5608686;31;34598;-65
2023/03/26 11:22:28;;;;;;;;;;;;;;;17.05;43.03;99664.81;5608566;31;33392;-66
2023/03/26 11:25:44;;;;;;;;;;;;;;;16.93;43.56;99657.56;5609405;31;34321;-66
2023/03/26 11:28:55;;;;;;;;;;;;;;;20.92;38.04;99649.53;5608527;31;34988;-67
2023/03/26 11:32:13;;;;;;;;;;;;;;;23.68;32.71;99642.50;5609254;31;34261;-66
2023/03/26 11:35:33;;;;;;;;;;;;;;;24.75;29.99;99640.38;5608435;31;34504;-67
2023/03/26 11:38:55;;;;;;;;;;;;;;;22.94;31.36;99635.66;5607901;31;33757;-67
2023/03/26 11:42:05;;;;;;;;;;;;;;;20.70;34.82;99633.38;5608704;31;34427;-66
2023/03/26 11:45:18;;;;;;;;;;;;;;;21.61;34.89;99618.94;5608896;31;34324;-67
2023/03/26 11:48:32;;;;;;;;;;;;;;;24.90;29.73;99615.94;5608524;31;34461;-67
2023/03/26 11:51:43;;;;;;;;;;;;;;;25.45;28.35;99614.75;5607995;31;34327;-67
2023/03/26 11:54:50;;;;;;;;;;;;;;;24.06;29.73;99604.00;5608346;31;34295;-67
2023/03/26 11:58:03;;;;;;;;;;;;;;;26.32;27.68;99591.09;5609089;31;34153;-68
2023/03/26 12:01:18;;;;;;;;;;;;;;;28.93;24.66;99591.59;5608111;31;34180;-67
2023/03/26 12:04:39;;;;;;;;;;;;;;;30.32;22.59;99585.91;5608217;31;33309;-67
2023/03/26 12:07:48;;;;;;;;;;;;;;;28.99;23.59;99563.06;5608030;31;33290;-67
2023/03/26 12:11:03;;;;;;;;;;;;;;;30.07;23.31;99555.38;5606980;31;36302;-68
2023/03/26 12:14:15;;;;;;;;;;;;;;;30.19;22.50;99550.13;5608677;31;34772;-67
2023/03/26 12:17:30;;;;;;;;;;;;;;;26.80;25.91;99551.03;5608351;31;33506;-67
2023/03/26 12:20:37;;;;;;;;;;;;;;;25.09;26.22;99543.59;5608664;31;34406;-68
2023/03/26 12:23:57;;;;;;;;;;;;;;;23.75;27.34;99532.84;5607972;31;33726;-67
2023/03/26 12:27:05;;;;;;;;;;;;;;;23.56;28.47;99514.72;5582702;31;34557;-67
2023/03/26 12:30:27;;;;;;;;;;;;;;;21.10;30.99;99517.84;5607897;31;32865;-67
2023/03/26 12:33:34;;;;;;;;;;;;;;;18.64;34.91;99498.91;5607865;31;34339;-66
2023/03/26 12:36:48;;;;;;;;;;;;;;;21.59;31.09;99498.81;5582266;31;34755;-66
2023/03/26 12:40:10;;;;;;;;;;;;;;;25.08;26.50;99490.41;5594998;31;32685;-66
2023/03/26 12:43:30;;;;;;;;;;;;;;;23.55;28.11;99481.41;5595536;31;33376;-69
2023/03/26 12:47:17;;;;;;;;;;;;;;;23.83;28.23;99479.97;5607940;31;34983;-66
2023/03/26 12:50:49;;;;;;;;;;;;;;;25.44;24.97;99478.16;5607970;31;34945;-67
2023/03/26 12:54:12;;;;;;;;;;;;;;;24.88;25.28;99458.84;5607200;31;34335;-66
2023/03/26 12:57:37;;;;;;;;;;;;;;;25.65;23.78;99457.06;5606879;31;36690;-70
2023/03/26 13:01:05;;;;;;;;;;;;;;;27.00;21.81;99444.59;5594813;31;33530;-67
2023/03/26 13:04:32;;;;;;;;;;;;;;;22.70;26.02;99437.09;5607582;31;33712;-67
2023/03/26 13:07:42;;;;;;;;;;;;;;;25.24;23.53;99459.34;5609153;31;34347;-66
2023/03/26 13:11:08;;;;;;;;;;;;;;;25.58;22.90;99445.72;5597004;31;34377;-66
2023/03/26 13:14:31;;;;;;;;;;;;;;;25.14;22.94;99443.16;5610518;31;34230;-66
2023/03/26 13:17:50;;;;;;;;;;;;;;;23.03;24.51;99427.63;5609378;31;33401;-67
2023/03/26 13:20:58;;;;;;;;;;;;;;;27.69;20.48;99425.66;5596647;31;35697;-68
2023/03/26 13:24:27;;;;;;;;;;;;;;;28.90;19.57;99420.22;5609921;31;34357;-68
2023/03/26 13:27:43;;;;;;;;;;;;;;;28.76;19.20;99405.78;5610338;31;34869;-68
2023/03/26 13:30:53;;;;;;;;;;;;;;;27.49;20.52;99405.06;5609646;31;34168;-67
2023/03/26 13:33:59;;;;;;;;;;;;;;;25.18;22.76;99399.94;5609374;31;33901;-66
2023/03/26 13:37:09;;;;;;;;;;;;;;;23.84;25.11;99392.22;5610111;31;34486;-67
2023/03/26 13:40:21;;;;;;;;;;;;;;;25.36;23.10;99396.50;5609613;31;34929;-67
2023/03/26 13:43:48;;;;;;;;;;;;;;;23.54;25.33;99385.03;5609486;31;34286;-67
2023/03/26 13:47:00;;;;;;;;;;;;;;;23.66;25.85;99379.31;5609604;31;34955;-67
2023/03/26 13:50:18;;;;;;;;;;;;;;;24.11;25.63;99376.34;5609274;31;34873;-67
2023/03/26 13:53:28;;;;;;;;;;;;;;;28.53;20.64;99383.13;5608859;31;33572;-67
2023/03/26 13:56:54;;;;;;;;;;;;;;;29.55;18.89;99367.66;5609312;31;33718;-68
2023/03/26 14:00:05;;;;;;;;;;;;;;;28.65;19.45;99358.03;5596439;31;34052;-67
2023/03/26 14:03:23;;;;;;;;;;;;;;;26.95;21.07;99348.59;5609468;31;34352;-67
2023/03/26 14:06:33;;;;;;;;;;;;;;;28.19;20.19;99345.50;5610002;31;34235;-67
2023/03/26 14:10:17;;;;;;;;;;;;;;;29.15;19.15;99344.97;5609105;31;34271;-67
2023/03/26 14:13:37;;;;;;;;;;;;;;;29.68;18.35;99353.84;5515689;32;33951;-68
2023/03/26 14:16:49;;;;;;;;;;;;;;;27.31;20.15;99324.19;5497613;32;33236;-68
2023/03/26 14:20:16;;;;;;;;;;;;;;;28.77;18.41;99334.53;5510429;32;34798;-69
2023/03/26 14:23:33;;;;;;;;;;;;;;;25.75;20.71;99329.25;5510688;32;34110;-69
2023/03/26 14:26:46;;;;;;;;;;;;;;;24.89;22.09;99322.06;5510659;32;34543;-69
2023/03/26 14:29:57;;;;;;;;;;;;;;;23.44;23.83;99311.94;5485109;32;35581;-67
2023/03/26 14:33:32;;;;;;;;;;;;;;;24.23;23.40;99313.72;5510229;32;35001;-67
2023/03/26 14:36:46;;;;;;;;;;;;;;;24.19;23.41;99309.94;5485485;32;34710;-68
2023/03/26 14:39:58;;;;;;;;;;;;;;;22.14;26.07;99297.56;5485598;32;32805;-67
2023/03/26 14:43:28;;;;;;;;;;;;;;;20.28;28.04;99297.19;5497735;32;33711;-65
2023/03/26 14:46:50;;;;;;;;;;;;;;;20.65;27.46;99293.75;5515338;31;34778;-67
2023/03/26 14:50:02;;;;;;;;;;;;;;;21.00;26.84;99287.75;5596104;31;34450;-66
2023/03/26 14:53:45;;;;;;;;;;;;;;;20.09;27.80;99279.78;5609076;31;34928;-66
2023/03/26 14:57:11;;;;;;;;;;;;;;;18.74;28.97;99285.19;5529192;32;34891;-65
2023/03/26 15:00:42;;;;;;;;;;;;;;;18.02;29.15;99275.22;5516728;32;35156;-67
2023/03/26 15:04:08;;;;;;;;;;;;;;;17.70;29.15;99261.50;5503698;32;34576;-65
2023/03/26 15:07:33;;;;;;;;;;;;;;;17.55;29.03;99245.09;5504301;32;34054;-65
2023/03/26 15:10:46;;;;;;;;;;;;;;;17.41;30.29;99240.28;5516721;32;34119;-66
2023/03/26 15:14:09;;;;;;;;;;;;;;;17.33;29.47;99241.50;5517275;32;34961;-65
2023/03/26 15:17:29;;;;;;;;;;;;;;;17.38;29.48;99239.69;5504399;32;33357;-66
2023/03/26 15:20:56;;;;;;;;;;;;;;;17.18;29.95;99236.66;5516368;32;34612;-67
2023/03/26 15:24:11;;;;;;;;;;;;;;;17.09;30.30;99229.22;5517225;32;33996;-66
2023/03/26 15:27:37;;;;;;;;;;;;;;;17.07;30.69;99228.63;5516068;32;33417;-67
2023/03/26 15:30:58;;;;;;;;;;;;;;;16.90;31.21;99213.28;5574512;31;34632;-66
2023/03/26 15:34:10;;;;;;;;;;;;;;;16.70;32.32;99214.75;5608394;31;34785;-66
2023/03/26 15:37:33;;;;;;;;;;;;;;;16.59;32.72;99211.03;5609181;31;34921;-66
2023/03/26 15:40:58;;;;;;;;;;;;;;;16.55;32.91;99201.81;5609389;31;35024;-68
2023/03/26 15:44:20;;;;;;;;;;;;;;;16.45;32.95;99205.09;5608762;31;34879;-66
2023/03/26 15:47:32;;;;;;;;;;;;;;;16.48;33.28;99206.47;5608591;31;34921;-66
2023/03/26 15:50:54;;;;;;;;;;;;;;;16.41;33.53;99203.91;5596589;31;33179;-66
2023/03/26 15:54:06;;;;;;;;;;;;;;;16.45;33.72;99196.25;5608669;31;34287;-66
2023/03/26 15:57:29;;;;;;;;;;;;;;;16.39;34.13;99192.63;5607973;31;33518;-66
2023/03/26 16:00:47;;;;;;;;;;;;;;;16.37;34.31;99196.56;5609215;31;34275;-66
2023/03/26 16:03:55;;;;;;;;;;;;;;;16.35;35.07;99183.44;5608311;31;33167;-66
2023/03/26 16:07:02;;;;;;;;;;;;;;;16.17;35.91;99170.16;5608462;31;34571;-66
2023/03/26 16:10:31;;;;;;;;;;;;;;;16.09;36.18;99167.84;5608934;31;34830;-66
2023/03/26 16:13:40;;;;;;;;;;;;;;;15.95;36.65;99166.44;5609166;31;34263;-66
2023/03/26 16:16:53;;;;;;;;;;;;;;;15.76;37.05;99157.72;5608279;31;35039;-65
2023/03/26 16:20:21;;;;;;;;;;;;;;;15.73;37.03;99144.00;5595413;31;32864;-67
2023/03/26 16:23:38;;;;;;;;;;;;;;;15.62;37.29;99138.41;5608149;31;34185;-65
2023/03/26 16:26:59;;;;;;;;;;;;;;;15.55;37.54;99127.00;5608341;31;34276;-67
2023/03/26 16:30:16;;;;;;;;;;;;;;;15.44;37.91;99124.28;5608928;31;33784;-67
2023/03/26 16:33:34;;;;;;;;;;;;;;;15.29;38.28;99131.91;5608947;31;34964;-67
2023/03/26 16:36:40;;;;;;;;;;;;;;;15.19;38.71;99127.13;5594982;31;33141;-67
2023/03/26 16:39:46;;;;;;;;;;;;;;;15.08;38.79;99126.03;5608679;31;35116;-66
2023/03/26 16:43:09;;;;;;;;;;;;;;;15.04;39.03;99130.22;5606334;31;35386;-67
2023/03/26 16:46:25;;;;;;;;;;;;;;;15.03;38.91;99130.44;5607931;31;34388;-67
2023/03/26 16:49:52;;;;;;;;;;;;;;;14.92;38.74;99126.66;5607922;31;34317;-67
2023/03/26 16:53:14;;;;;;;;;;;;;;;14.91;38.52;99124.25;5608020;31;35300;-66
2023/03/26 16:56:56;;;;;;;;;;;;;;;14.78;38.84;99134.03;5608405;31;34821;-66
2023/03/26 17:00:15;;;;;;;;;;;;;;;14.65;39.10;99131.53;5510291;31;33064;-66